EPE805 OMSJ-OPKC
Flight info
| Callsign | EPE805 |
|---|---|
| Flight time | 1h 49m |
| Altitude | 35000 |
| Route | ANVIX L223 TARDI N629 IVAKU G216 LAKIV |
| Aircraft | B733/M-SDE2E3FHIRW/S |
Departure
| Time | 2026-05-06 19:02 |
|---|---|
| Airport | Sharjah International Airport (OMSJ) |
Arrival
| Time | 2026-05-06 20:51 |
|---|---|
| Airport | Jinnah International Airport (OPKC) |
| Time | Latitude | Longitude | Altitude | Speed | Heading |
|---|---|---|---|---|---|
| 2026-05-06 18:32 | 25.32707 | 55.51014 | 87 ft | 0 kts | 303° |
| 2026-05-06 18:52 | 25.32701 | 55.51023 | 87 ft | 2 kts | 303° |
| 2026-05-06 18:52 | 25.32693 | 55.51038 | 87 ft | 2 kts | 298° |
| 2026-05-06 18:52 | 25.32681 | 55.51062 | 88 ft | 3 kts | 301° |
| 2026-05-06 18:52 | 25.32666 | 55.51087 | 88 ft | 3 kts | 304° |
| 2026-05-06 18:53 | 25.32650 | 55.51112 | 88 ft | 3 kts | 307° |
| 2026-05-06 18:53 | 25.32633 | 55.51136 | 88 ft | 3 kts | 309° |
| 2026-05-06 18:53 | 25.32616 | 55.51157 | 87 ft | 3 kts | 313° |
| 2026-05-06 18:53 | 25.32612 | 55.51161 | 87 ft | 0 kts | 318° |
| 2026-05-06 18:55 | 25.32626 | 55.51143 | 87 ft | 8 kts | 302° |
| 2026-05-06 18:56 | 25.32666 | 55.51099 | 88 ft | 7 kts | 352° |
| 2026-05-06 18:56 | 25.32708 | 55.51119 | 89 ft | 5 kts | 32° |
| 2026-05-06 18:56 | 25.32745 | 55.51145 | 90 ft | 9 kts | 33° |
| 2026-05-06 18:56 | 25.32806 | 55.51188 | 92 ft | 10 kts | 33° |
| 2026-05-06 18:57 | 25.32858 | 55.51225 | 94 ft | 7 kts | 32° |
| 2026-05-06 18:57 | 25.32899 | 55.51252 | 95 ft | 6 kts | 31° |
| 2026-05-06 18:57 | 25.32939 | 55.51279 | 96 ft | 8 kts | 31° |
| 2026-05-06 18:57 | 25.32996 | 55.51318 | 98 ft | 8 kts | 33° |
| 2026-05-06 18:58 | 25.33040 | 55.51359 | 99 ft | 8 kts | 61° |
| 2026-05-06 18:58 | 25.33021 | 55.51440 | 99 ft | 13 kts | 124° |
| 2026-05-06 18:58 | 25.32966 | 55.51532 | 99 ft | 14 kts | 121° |
| 2026-05-06 18:58 | 25.32914 | 55.51625 | 99 ft | 13 kts | 124° |
| 2026-05-06 18:59 | 25.32858 | 55.51725 | 101 ft | 16 kts | 121° |
| 2026-05-06 18:59 | 25.32791 | 55.51840 | 103 ft | 24 kts | 123° |
| 2026-05-06 18:59 | 25.32690 | 55.52014 | 103 ft | 26 kts | 122° |
| 2026-05-06 18:59 | 25.32587 | 55.52190 | 104 ft | 26 kts | 123° |
| 2026-05-06 19:00 | 25.32486 | 55.52366 | 105 ft | 18 kts | 123° |
| 2026-05-06 19:00 | 25.32415 | 55.52488 | 105 ft | 17 kts | 123° |
| 2026-05-06 19:00 | 25.32400 | 55.52590 | 105 ft | 13 kts | 51° |
| 2026-05-06 19:00 | 25.32481 | 55.52650 | 105 ft | 13 kts | 32° |
| 2026-05-06 19:01 | 25.32545 | 55.52679 | 105 ft | 9 kts | 346° |
| 2026-05-06 19:01 | 25.32610 | 55.52605 | 105 ft | 24 kts | 303° |
| 2026-05-06 19:01 | 25.32833 | 55.52223 | 107 ft | 90 kts | 302° |
| 2026-05-06 19:01 | 25.33318 | 55.51385 | 99 ft | 149 kts | 303° |
| 2026-05-06 19:02 | 25.33971 | 55.50267 | 293 ft | 172 kts | 303° |
| 2026-05-06 19:02 | 25.34611 | 55.49142 | 762 ft | 179 kts | 302° |
| 2026-05-06 19:02 | 25.35289 | 55.47952 | 1226 ft | 184 kts | 303° |
| 2026-05-06 19:02 | 25.35970 | 55.46772 | 1790 ft | 180 kts | 303° |
| 2026-05-06 19:03 | 25.36684 | 55.45533 | 2147 ft | 189 kts | 303° |
| 2026-05-06 19:03 | 25.37420 | 55.44251 | 2444 ft | 201 kts | 303° |
| 2026-05-06 19:03 | 25.38198 | 55.42897 | 2735 ft | 213 kts | 304° |
| 2026-05-06 19:03 | 25.39321 | 55.41606 | 2990 ft | 226 kts | 332° |
| 2026-05-06 19:04 | 25.40961 | 55.41092 | 3233 ft | 242 kts | 2° |
| 2026-05-06 19:04 | 25.42759 | 55.41668 | 3508 ft | 248 kts | 33° |
| 2026-05-06 19:04 | 25.44313 | 55.42737 | 3872 ft | 254 kts | 32° |
| 2026-05-06 19:04 | 25.45974 | 55.43881 | 4265 ft | 257 kts | 32° |
| 2026-05-06 19:05 | 25.47675 | 55.45058 | 4662 ft | 260 kts | 32° |
| 2026-05-06 19:05 | 25.49356 | 55.46225 | 5047 ft | 262 kts | 33° |
| 2026-05-06 19:05 | 25.51029 | 55.47479 | 5459 ft | 265 kts | 44° |
| 2026-05-06 19:05 | 25.52154 | 55.49389 | 5895 ft | 277 kts | 75° |
| 2026-05-06 19:06 | 25.52282 | 55.51519 | 6494 ft | 280 kts | 102° |
| 2026-05-06 19:06 | 25.51521 | 55.53506 | 7122 ft | 284 kts | 127° |
| 2026-05-06 19:06 | 25.50020 | 55.54951 | 7744 ft | 287 kts | 150° |
| 2026-05-06 19:06 | 25.48241 | 55.55960 | 8430 ft | 290 kts | 153° |
| 2026-05-06 19:07 | 25.46433 | 55.56931 | 9119 ft | 291 kts | 152° |
| 2026-05-06 19:07 | 25.44589 | 55.57927 | 9822 ft | 294 kts | 152° |
| 2026-05-06 19:07 | 25.42713 | 55.58944 | 10056 ft | 314 kts | 152° |
| 2026-05-06 19:07 | 25.40646 | 55.60067 | 10177 ft | 337 kts | 152° |
| 2026-05-06 19:08 | 25.38499 | 55.61230 | 10643 ft | 347 kts | 152° |
| 2026-05-06 19:08 | 25.36330 | 55.62405 | 11270 ft | 351 kts | 152° |
| 2026-05-06 19:08 | 25.34132 | 55.63598 | 11865 ft | 356 kts | 152° |
| 2026-05-06 19:08 | 25.31898 | 55.64810 | 12470 ft | 361 kts | 151° |
| 2026-05-06 19:09 | 25.29629 | 55.66041 | 13096 ft | 365 kts | 151° |
| 2026-05-06 19:09 | 25.27345 | 55.67279 | 13751 ft | 369 kts | 151° |
| 2026-05-06 19:09 | 25.25007 | 55.68547 | 14434 ft | 371 kts | 152° |
| 2026-05-06 19:09 | 25.22690 | 55.69803 | 15077 ft | 374 kts | 152° |
| 2026-05-06 19:10 | 25.20350 | 55.71070 | 15712 ft | 377 kts | 152° |
| 2026-05-06 19:10 | 25.17998 | 55.72343 | 16343 ft | 379 kts | 152° |
| 2026-05-06 19:10 | 25.15629 | 55.73626 | 16939 ft | 383 kts | 152° |
| 2026-05-06 19:10 | 25.13201 | 55.74939 | 17524 ft | 386 kts | 152° |
| 2026-05-06 19:11 | 25.10777 | 55.76250 | 18080 ft | 389 kts | 153° |
| 2026-05-06 19:11 | 25.08341 | 55.77566 | 18611 ft | 393 kts | 153° |
| 2026-05-06 19:11 | 25.05879 | 55.78896 | 19130 ft | 396 kts | 153° |
| 2026-05-06 19:11 | 25.03359 | 55.80257 | 19655 ft | 400 kts | 154° |
| 2026-05-06 19:12 | 25.00854 | 55.81609 | 20182 ft | 403 kts | 154° |
| 2026-05-06 19:12 | 24.98327 | 55.82972 | 20669 ft | 407 kts | 154° |
| 2026-05-06 19:12 | 24.95780 | 55.84345 | 21151 ft | 410 kts | 154° |
| 2026-05-06 19:12 | 24.93216 | 55.85727 | 21640 ft | 413 kts | 155° |
| 2026-05-06 19:13 | 24.90630 | 55.87120 | 22109 ft | 416 kts | 155° |
| 2026-05-06 19:13 | 24.87971 | 55.88549 | 22485 ft | 422 kts | 155° |
| 2026-05-06 19:13 | 24.85300 | 55.89980 | 22938 ft | 426 kts | 155° |
| 2026-05-06 19:13 | 24.82594 | 55.91434 | 23403 ft | 429 kts | 156° |
| 2026-05-06 19:14 | 24.79859 | 55.92903 | 23827 ft | 433 kts | 156° |
| 2026-05-06 19:14 | 24.77247 | 55.94646 | 24209 ft | 439 kts | 142° |
| 2026-05-06 19:14 | 24.74974 | 55.96955 | 24616 ft | 443 kts | 138° |
| 2026-05-06 19:14 | 24.72755 | 55.99308 | 24993 ft | 446 kts | 138° |
| 2026-05-06 19:15 | 24.70499 | 56.01665 | 25380 ft | 448 kts | 139° |
| 2026-05-06 19:15 | 24.68138 | 56.04107 | 25763 ft | 451 kts | 139° |
| 2026-05-06 19:15 | 24.65721 | 56.06598 | 26133 ft | 454 kts | 139° |
| 2026-05-06 19:15 | 24.63324 | 56.09067 | 26509 ft | 457 kts | 139° |
| 2026-05-06 19:16 | 24.60972 | 56.11489 | 26863 ft | 460 kts | 139° |
| 2026-05-06 19:16 | 24.58642 | 56.13882 | 27242 ft | 461 kts | 140° |
| 2026-05-06 19:16 | 24.56321 | 56.16387 | 27588 ft | 466 kts | 135° |
| 2026-05-06 19:16 | 24.54198 | 56.19089 | 27938 ft | 469 kts | 133° |
| 2026-05-06 19:17 | 24.52105 | 56.21812 | 28394 ft | 468 kts | 133° |
| 2026-05-06 19:17 | 24.50002 | 56.24519 | 28872 ft | 466 kts | 134° |
| 2026-05-06 19:17 | 24.47899 | 56.27205 | 29321 ft | 465 kts | 134° |
| 2026-05-06 19:17 | 24.45766 | 56.29922 | 29726 ft | 466 kts | 134° |
| 2026-05-06 19:18 | 24.43654 | 56.32610 | 30129 ft | 465 kts | 134° |
| 2026-05-06 19:18 | 24.41541 | 56.35298 | 30532 ft | 465 kts | 134° |
| 2026-05-06 19:18 | 24.39433 | 56.37978 | 30958 ft | 464 kts | 134° |
| 2026-05-06 19:18 | 24.37312 | 56.40672 | 31390 ft | 462 kts | 133° |
| 2026-05-06 19:19 | 24.35206 | 56.43348 | 31828 ft | 460 kts | 133° |
| 2026-05-06 19:19 | 24.33119 | 56.45995 | 32231 ft | 459 kts | 134° |
| 2026-05-06 19:19 | 24.31039 | 56.48633 | 32594 ft | 458 kts | 134° |
| 2026-05-06 19:19 | 24.28994 | 56.51358 | 32960 ft | 459 kts | 129° |
| 2026-05-06 19:20 | 24.27118 | 56.54175 | 33370 ft | 459 kts | 128° |
| 2026-05-06 19:20 | 24.25267 | 56.57009 | 33670 ft | 460 kts | 128° |
| 2026-05-06 19:20 | 24.23407 | 56.59840 | 33946 ft | 458 kts | 128° |
| 2026-05-06 19:20 | 24.21542 | 56.62658 | 34225 ft | 458 kts | 128° |
| 2026-05-06 19:21 | 24.19649 | 56.65512 | 34503 ft | 458 kts | 129° |
| 2026-05-06 19:21 | 24.17791 | 56.68321 | 34736 ft | 454 kts | 128° |
| 2026-05-06 19:21 | 24.15942 | 56.71115 | 34865 ft | 455 kts | 128° |
| 2026-05-06 19:22 | 24.12237 | 56.76691 | 34836 ft | 453 kts | 129° |
| 2026-05-06 19:22 | 24.08524 | 56.82267 | 34830 ft | 451 kts | 129° |
| 2026-05-06 19:23 | 24.04836 | 56.87798 | 34822 ft | 451 kts | 128° |
| 2026-05-06 19:23 | 24.01129 | 56.93321 | 34818 ft | 452 kts | 129° |
| 2026-05-06 19:24 | 23.97402 | 56.98882 | 34811 ft | 451 kts | 128° |
| 2026-05-06 19:24 | 23.93705 | 57.04402 | 34820 ft | 451 kts | 128° |
| 2026-05-06 19:25 | 23.90006 | 57.09920 | 34828 ft | 452 kts | 128° |
| 2026-05-06 19:25 | 23.86238 | 57.15490 | 34811 ft | 454 kts | 128° |
| 2026-05-06 19:26 | 23.82499 | 57.21041 | 34808 ft | 455 kts | 128° |
| 2026-05-06 19:26 | 23.78744 | 57.26627 | 34826 ft | 454 kts | 128° |
| 2026-05-06 19:27 | 23.75016 | 57.32166 | 34829 ft | 454 kts | 128° |
| 2026-05-06 19:27 | 23.71255 | 57.37671 | 34858 ft | 454 kts | 130° |
| 2026-05-06 19:28 | 23.67325 | 57.43050 | 34850 ft | 455 kts | 130° |
| 2026-05-06 19:28 | 23.63384 | 57.48460 | 34856 ft | 453 kts | 130° |
| 2026-05-06 19:29 | 23.59466 | 57.53847 | 34854 ft | 454 kts | 130° |
| 2026-05-06 19:29 | 23.55550 | 57.59227 | 34875 ft | 454 kts | 130° |
| 2026-05-06 19:30 | 23.51634 | 57.64601 | 34869 ft | 453 kts | 130° |
| 2026-05-06 19:30 | 23.49792 | 57.67374 | 34798 ft | 455 kts | 118° |
| 2026-05-06 19:30 | 23.48811 | 57.70677 | 34896 ft | 457 kts | 96° |
| 2026-05-06 19:30 | 23.48949 | 57.74117 | 34888 ft | 459 kts | 75° |
| 2026-05-06 19:31 | 23.49931 | 57.77420 | 34891 ft | 460 kts | 70° |
| 2026-05-06 19:31 | 23.52299 | 57.87497 | 34863 ft | 460 kts | 78° |
| 2026-05-06 19:32 | 23.53512 | 57.94299 | 34884 ft | 460 kts | 78° |
| 2026-05-06 19:32 | 23.54734 | 58.01168 | 34870 ft | 460 kts | 78° |
| 2026-05-06 19:33 | 23.55948 | 58.07996 | 34851 ft | 461 kts | 78° |
| 2026-05-06 19:33 | 23.57193 | 58.15014 | 34828 ft | 462 kts | 78° |
| 2026-05-06 19:34 | 23.58405 | 58.21866 | 34841 ft | 460 kts | 78° |
| 2026-05-06 19:34 | 23.59611 | 58.28840 | 34846 ft | 460 kts | 79° |
| 2026-05-06 19:35 | 23.60748 | 58.35676 | 34826 ft | 461 kts | 79° |
| 2026-05-06 19:35 | 23.61895 | 58.42511 | 34831 ft | 461 kts | 79° |
| 2026-05-06 19:36 | 23.63048 | 58.49390 | 34826 ft | 461 kts | 79° |
| 2026-05-06 19:36 | 23.64190 | 58.56220 | 34823 ft | 460 kts | 79° |
| 2026-05-06 19:37 | 23.65338 | 58.63105 | 34827 ft | 461 kts | 79° |
| 2026-05-06 19:37 | 23.66473 | 58.69947 | 34833 ft | 460 kts | 79° |
| 2026-05-06 19:38 | 23.67609 | 58.76810 | 34831 ft | 460 kts | 79° |
| 2026-05-06 19:38 | 23.68730 | 58.83643 | 34807 ft | 460 kts | 79° |
| 2026-05-06 19:39 | 23.69856 | 58.90516 | 34800 ft | 459 kts | 79° |
| 2026-05-06 19:39 | 23.70984 | 58.97355 | 34791 ft | 460 kts | 79° |
| 2026-05-06 19:40 | 23.72108 | 59.04187 | 34809 ft | 459 kts | 79° |
| 2026-05-06 19:40 | 23.73238 | 59.11073 | 34795 ft | 460 kts | 79° |
| 2026-05-06 19:41 | 23.74357 | 59.17913 | 34780 ft | 460 kts | 79° |
| 2026-05-06 19:41 | 23.75471 | 59.24747 | 34799 ft | 460 kts | 79° |
| 2026-05-06 19:42 | 23.76591 | 59.31635 | 34798 ft | 460 kts | 79° |
| 2026-05-06 19:42 | 23.77701 | 59.38480 | 34798 ft | 460 kts | 79° |
| 2026-05-06 19:43 | 23.78900 | 59.45896 | 34783 ft | 460 kts | 79° |
| 2026-05-06 19:43 | 23.79997 | 59.52756 | 34772 ft | 461 kts | 79° |
| 2026-05-06 19:44 | 23.81085 | 59.59662 | 34771 ft | 460 kts | 79° |
| 2026-05-06 19:44 | 23.82200 | 59.66660 | 34729 ft | 461 kts | 79° |
| 2026-05-06 19:45 | 23.83299 | 59.73588 | 34770 ft | 461 kts | 79° |
| 2026-05-06 19:45 | 23.84390 | 59.80467 | 34771 ft | 460 kts | 79° |
| 2026-05-06 19:46 | 23.85471 | 59.87344 | 34772 ft | 461 kts | 79° |
| 2026-05-06 19:46 | 23.86556 | 59.94208 | 34782 ft | 460 kts | 79° |
| 2026-05-06 19:47 | 23.87644 | 60.01111 | 34784 ft | 459 kts | 79° |
| 2026-05-06 19:47 | 23.88724 | 60.07983 | 34781 ft | 460 kts | 79° |
| 2026-05-06 19:48 | 23.89801 | 60.14853 | 34781 ft | 461 kts | 79° |
| 2026-05-06 19:48 | 23.90884 | 60.21787 | 34770 ft | 463 kts | 79° |
| 2026-05-06 19:49 | 23.91958 | 60.28685 | 34777 ft | 462 kts | 79° |
| 2026-05-06 19:49 | 23.93031 | 60.35591 | 34768 ft | 462 kts | 79° |
| 2026-05-06 19:50 | 23.94098 | 60.42485 | 34777 ft | 462 kts | 79° |
| 2026-05-06 19:50 | 23.95207 | 60.49674 | 34778 ft | 461 kts | 79° |
| 2026-05-06 19:51 | 23.96277 | 60.56675 | 34778 ft | 461 kts | 79° |
| 2026-05-06 19:51 | 23.97330 | 60.63558 | 34775 ft | 461 kts | 79° |
| 2026-05-06 19:52 | 23.98384 | 60.70484 | 34764 ft | 459 kts | 79° |
| 2026-05-06 19:52 | 23.99439 | 60.77426 | 34768 ft | 461 kts | 79° |
| 2026-05-06 19:53 | 24.00493 | 60.84374 | 34760 ft | 460 kts | 79° |
| 2026-05-06 19:53 | 24.01538 | 60.91286 | 34764 ft | 460 kts | 79° |
| 2026-05-06 19:54 | 24.02569 | 60.98124 | 34775 ft | 456 kts | 79° |
| 2026-05-06 19:54 | 24.03588 | 61.04903 | 34776 ft | 453 kts | 79° |
| 2026-05-06 19:55 | 24.04610 | 61.11721 | 34780 ft | 453 kts | 79° |
| 2026-05-06 19:55 | 24.05621 | 61.18491 | 34782 ft | 453 kts | 79° |
| 2026-05-06 19:56 | 24.06631 | 61.25275 | 34774 ft | 456 kts | 79° |
| 2026-05-06 19:56 | 24.07655 | 61.32167 | 34784 ft | 460 kts | 79° |
| 2026-05-06 19:57 | 24.08649 | 61.39055 | 34784 ft | 461 kts | 79° |
| 2026-05-06 19:57 | 24.09659 | 61.45973 | 34777 ft | 459 kts | 79° |
| 2026-05-06 19:58 | 24.10681 | 61.52839 | 34777 ft | 460 kts | 79° |
| 2026-05-06 19:58 | 24.11703 | 61.59721 | 34781 ft | 460 kts | 79° |
| 2026-05-06 19:59 | 24.12717 | 61.66669 | 34745 ft | 462 kts | 79° |
| 2026-05-06 19:59 | 24.13716 | 61.73572 | 34783 ft | 461 kts | 79° |
| 2026-05-06 20:00 | 24.14716 | 61.80522 | 34780 ft | 461 kts | 80° |
| 2026-05-06 20:00 | 24.15646 | 61.87424 | 34782 ft | 461 kts | 80° |
| 2026-05-06 20:01 | 24.16637 | 61.94725 | 34783 ft | 461 kts | 80° |
| 2026-05-06 20:01 | 24.17586 | 62.01711 | 34779 ft | 461 kts | 80° |
| 2026-05-06 20:02 | 24.18523 | 62.08632 | 34786 ft | 461 kts | 79° |
| 2026-05-06 20:02 | 24.19461 | 62.15585 | 34779 ft | 461 kts | 79° |
| 2026-05-06 20:03 | 24.20390 | 62.22499 | 34783 ft | 461 kts | 79° |
| 2026-05-06 20:03 | 24.21317 | 62.29424 | 34778 ft | 462 kts | 79° |
| 2026-05-06 20:04 | 24.22246 | 62.36382 | 34778 ft | 461 kts | 79° |
| 2026-05-06 20:04 | 24.23167 | 62.43303 | 34777 ft | 462 kts | 79° |
| 2026-05-06 20:05 | 24.24090 | 62.50268 | 34779 ft | 461 kts | 79° |
| 2026-05-06 20:05 | 24.25002 | 62.57174 | 34776 ft | 461 kts | 79° |
| 2026-05-06 20:06 | 24.25919 | 62.64147 | 34779 ft | 462 kts | 79° |
| 2026-05-06 20:06 | 24.26825 | 62.71084 | 34779 ft | 460 kts | 80° |
| 2026-05-06 20:07 | 24.27729 | 62.78009 | 34778 ft | 462 kts | 80° |
| 2026-05-06 20:07 | 24.28630 | 62.84937 | 34776 ft | 462 kts | 80° |
| 2026-05-06 20:08 | 24.29534 | 62.91904 | 34775 ft | 461 kts | 80° |
| 2026-05-06 20:08 | 24.30467 | 62.99115 | 34773 ft | 462 kts | 80° |
| 2026-05-06 20:09 | 24.31405 | 63.06364 | 34784 ft | 461 kts | 80° |
| 2026-05-06 20:09 | 24.32324 | 63.13543 | 34781 ft | 460 kts | 80° |
| 2026-05-06 20:10 | 24.33237 | 63.20706 | 34786 ft | 461 kts | 80° |
| 2026-05-06 20:10 | 24.34133 | 63.27766 | 34780 ft | 461 kts | 80° |
| 2026-05-06 20:11 | 24.35015 | 63.34739 | 34784 ft | 461 kts | 80° |
| 2026-05-06 20:11 | 24.35898 | 63.41747 | 34784 ft | 461 kts | 80° |
| 2026-05-06 20:12 | 24.36769 | 63.48682 | 34783 ft | 461 kts | 80° |
| 2026-05-06 20:12 | 24.37642 | 63.55667 | 34784 ft | 461 kts | 80° |
| 2026-05-06 20:13 | 24.38510 | 63.62637 | 34783 ft | 461 kts | 80° |
| 2026-05-06 20:13 | 24.39399 | 63.69814 | 34765 ft | 460 kts | 80° |
| 2026-05-06 20:14 | 24.40264 | 63.76834 | 34783 ft | 461 kts | 80° |
| 2026-05-06 20:14 | 24.41125 | 63.83823 | 34786 ft | 462 kts | 80° |
| 2026-05-06 20:15 | 24.41979 | 63.90783 | 34782 ft | 462 kts | 80° |
| 2026-05-06 20:15 | 24.42829 | 63.97738 | 34785 ft | 461 kts | 80° |
| 2026-05-06 20:16 | 24.43680 | 64.04728 | 34782 ft | 462 kts | 80° |
| 2026-05-06 20:16 | 24.44522 | 64.11670 | 34787 ft | 462 kts | 80° |
| 2026-05-06 20:17 | 24.45372 | 64.18714 | 34784 ft | 461 kts | 80° |
| 2026-05-06 20:17 | 24.46214 | 64.25714 | 34781 ft | 462 kts | 80° |
| 2026-05-06 20:18 | 24.47065 | 64.32819 | 34784 ft | 462 kts | 80° |
| 2026-05-06 20:18 | 24.47930 | 64.40058 | 34782 ft | 463 kts | 80° |
| 2026-05-06 20:19 | 24.48798 | 64.47370 | 34787 ft | 464 kts | 79° |
| 2026-05-06 20:19 | 24.49649 | 64.54562 | 34784 ft | 463 kts | 79° |
| 2026-05-06 20:20 | 24.50483 | 64.61639 | 34782 ft | 463 kts | 79° |
| 2026-05-06 20:20 | 24.51305 | 64.68651 | 34745 ft | 464 kts | 80° |
| 2026-05-06 20:21 | 24.52117 | 64.75626 | 34785 ft | 463 kts | 80° |
| 2026-05-06 20:21 | 24.52933 | 64.82672 | 34786 ft | 465 kts | 81° |
| 2026-05-06 20:22 | 24.53459 | 64.89714 | 34787 ft | 465 kts | 83° |
| 2026-05-06 20:22 | 24.53988 | 64.96800 | 34783 ft | 463 kts | 82° |
| 2026-05-06 20:23 | 24.54540 | 65.03818 | 34784 ft | 464 kts | 82° |
| 2026-05-06 20:23 | 24.55089 | 65.10845 | 34776 ft | 464 kts | 82° |
| 2026-05-06 20:24 | 24.55640 | 65.17931 | 34782 ft | 464 kts | 82° |
| 2026-05-06 20:24 | 24.56182 | 65.24955 | 34784 ft | 463 kts | 82° |
| 2026-05-06 20:25 | 24.56721 | 65.31979 | 34780 ft | 463 kts | 82° |
| 2026-05-06 20:25 | 24.57261 | 65.39059 | 34782 ft | 464 kts | 82° |
| 2026-05-06 20:26 | 24.57794 | 65.46092 | 34782 ft | 463 kts | 82° |
| 2026-05-06 20:26 | 24.58323 | 65.53119 | 34782 ft | 465 kts | 82° |
| 2026-05-06 20:27 | 24.58879 | 65.60554 | 34333 ft | 463 kts | 82° |
| 2026-05-06 20:27 | 24.59150 | 65.64195 | 33472 ft | 461 kts | 82° |
| 2026-05-06 20:27 | 24.59410 | 65.67716 | 32865 ft | 455 kts | 82° |
| 2026-05-06 20:28 | 24.59662 | 65.71145 | 32279 ft | 449 kts | 82° |
| 2026-05-06 20:28 | 24.59910 | 65.74528 | 31695 ft | 445 kts | 82° |
| 2026-05-06 20:28 | 24.60167 | 65.78027 | 31060 ft | 441 kts | 81° |
| 2026-05-06 20:28 | 24.60432 | 65.81634 | 30460 ft | 436 kts | 81° |
| 2026-05-06 20:29 | 24.60672 | 65.84921 | 29916 ft | 431 kts | 81° |
| 2026-05-06 20:29 | 24.60908 | 65.88169 | 29321 ft | 428 kts | 81° |
| 2026-05-06 20:29 | 24.61143 | 65.91400 | 28763 ft | 424 kts | 81° |
| 2026-05-06 20:29 | 24.61377 | 65.94639 | 28239 ft | 419 kts | 81° |
| 2026-05-06 20:30 | 24.61604 | 65.97785 | 27752 ft | 413 kts | 81° |
| 2026-05-06 20:30 | 24.62048 | 66.03970 | 26760 ft | 403 kts | 80° |
| 2026-05-06 20:30 | 24.62266 | 66.07010 | 26234 ft | 399 kts | 80° |
| 2026-05-06 20:31 | 24.62481 | 66.10017 | 25722 ft | 395 kts | 80° |
| 2026-05-06 20:31 | 24.62696 | 66.13032 | 25244 ft | 390 kts | 80° |
| 2026-05-06 20:31 | 24.62904 | 66.15966 | 24741 ft | 386 kts | 80° |
| 2026-05-06 20:31 | 24.63110 | 66.18874 | 24261 ft | 381 kts | 80° |
| 2026-05-06 20:32 | 24.63313 | 66.21753 | 23778 ft | 377 kts | 80° |
| 2026-05-06 20:32 | 24.63526 | 66.24778 | 23295 ft | 371 kts | 81° |
| 2026-05-06 20:32 | 24.63733 | 66.27719 | 22801 ft | 367 kts | 80° |
| 2026-05-06 20:32 | 24.63934 | 66.30601 | 22342 ft | 362 kts | 80° |
| 2026-05-06 20:33 | 24.64134 | 66.33456 | 21883 ft | 358 kts | 80° |
| 2026-05-06 20:33 | 24.64330 | 66.36276 | 21419 ft | 354 kts | 80° |
| 2026-05-06 20:33 | 24.64528 | 66.39118 | 20949 ft | 350 kts | 80° |
| 2026-05-06 20:33 | 24.64720 | 66.41887 | 20485 ft | 347 kts | 80° |
| 2026-05-06 20:34 | 24.64909 | 66.44631 | 20029 ft | 343 kts | 80° |
| 2026-05-06 20:34 | 24.65095 | 66.47335 | 19576 ft | 339 kts | 80° |
| 2026-05-06 20:34 | 24.65282 | 66.50050 | 19132 ft | 335 kts | 80° |
| 2026-05-06 20:34 | 24.65464 | 66.52708 | 18677 ft | 331 kts | 80° |
| 2026-05-06 20:35 | 24.65642 | 66.55325 | 18242 ft | 328 kts | 80° |
| 2026-05-06 20:35 | 24.65809 | 66.57958 | 17790 ft | 324 kts | 81° |
| 2026-05-06 20:35 | 24.65959 | 66.60532 | 17343 ft | 321 kts | 81° |
| 2026-05-06 20:35 | 24.66121 | 66.63110 | 16871 ft | 318 kts | 81° |
| 2026-05-06 20:36 | 24.66285 | 66.65630 | 16392 ft | 316 kts | 81° |
| 2026-05-06 20:36 | 24.66453 | 66.68177 | 15885 ft | 315 kts | 81° |
| 2026-05-06 20:36 | 24.66617 | 66.70664 | 15472 ft | 311 kts | 81° |
| 2026-05-06 20:36 | 24.66781 | 66.73126 | 15019 ft | 308 kts | 81° |
| 2026-05-06 20:37 | 24.66944 | 66.75571 | 14574 ft | 306 kts | 81° |
| 2026-05-06 20:37 | 24.67102 | 66.77934 | 14149 ft | 304 kts | 81° |
| 2026-05-06 20:37 | 24.67256 | 66.80231 | 13711 ft | 302 kts | 80° |
| 2026-05-06 20:37 | 24.67408 | 66.82517 | 13274 ft | 301 kts | 80° |
| 2026-05-06 20:38 | 24.67563 | 66.84851 | 12817 ft | 300 kts | 80° |
| 2026-05-06 20:38 | 24.67715 | 66.87125 | 12375 ft | 299 kts | 80° |
| 2026-05-06 20:38 | 24.67866 | 66.89417 | 11951 ft | 297 kts | 80° |
| 2026-05-06 20:38 | 24.68015 | 66.91666 | 11522 ft | 296 kts | 81° |
| 2026-05-06 20:39 | 24.68163 | 66.93903 | 11112 ft | 294 kts | 81° |
| 2026-05-06 20:39 | 24.68309 | 66.96128 | 10702 ft | 293 kts | 81° |
| 2026-05-06 20:39 | 24.68455 | 66.98355 | 10278 ft | 292 kts | 81° |
| 2026-05-06 20:39 | 24.68602 | 67.00596 | 9876 ft | 290 kts | 82° |
| 2026-05-06 20:40 | 24.68745 | 67.02789 | 9484 ft | 289 kts | 82° |
| 2026-05-06 20:40 | 24.69062 | 67.04932 | 9056 ft | 283 kts | 67° |
| 2026-05-06 20:40 | 24.69944 | 67.06835 | 8598 ft | 281 kts | 56° |
| 2026-05-06 20:40 | 24.70954 | 67.08675 | 8164 ft | 282 kts | 56° |
| 2026-05-06 20:41 | 24.71958 | 67.10516 | 7744 ft | 282 kts | 56° |
| 2026-05-06 20:41 | 24.72974 | 67.12386 | 7331 ft | 282 kts | 56° |
| 2026-05-06 20:41 | 24.74050 | 67.14369 | 6950 ft | 280 kts | 56° |
| 2026-05-06 20:41 | 24.75131 | 67.16365 | 6691 ft | 281 kts | 56° |
| 2026-05-06 20:42 | 24.76149 | 67.18244 | 6453 ft | 283 kts | 56° |
| 2026-05-06 20:42 | 24.77154 | 67.20104 | 6210 ft | 282 kts | 56° |
| 2026-05-06 20:42 | 24.78155 | 67.21957 | 5974 ft | 282 kts | 56° |
| 2026-05-06 20:42 | 24.79158 | 67.23814 | 5737 ft | 282 kts | 56° |
| 2026-05-06 20:43 | 24.80168 | 67.25686 | 5498 ft | 282 kts | 56° |
| 2026-05-06 20:43 | 24.81169 | 67.27539 | 5263 ft | 282 kts | 56° |
| 2026-05-06 20:43 | 24.82172 | 67.29398 | 5029 ft | 283 kts | 57° |
| 2026-05-06 20:43 | 24.83173 | 67.31255 | 4791 ft | 283 kts | 57° |
| 2026-05-06 20:44 | 24.84177 | 67.33119 | 4551 ft | 282 kts | 57° |
| 2026-05-06 20:44 | 24.85166 | 67.34956 | 4308 ft | 277 kts | 57° |
| 2026-05-06 20:44 | 24.86135 | 67.36757 | 4120 ft | 271 kts | 57° |
| 2026-05-06 20:44 | 24.87192 | 67.38422 | 3925 ft | 260 kts | 38° |
| 2026-05-06 20:45 | 24.88729 | 67.39301 | 3761 ft | 239 kts | 6° |
| 2026-05-06 20:45 | 24.90328 | 67.39278 | 3573 ft | 219 kts | 340° |
| 2026-05-06 20:45 | 24.91763 | 67.38857 | 3389 ft | 210 kts | 340° |
| 2026-05-06 20:45 | 24.93167 | 67.38432 | 3209 ft | 206 kts | 335° |
| 2026-05-06 20:46 | 24.94355 | 67.37620 | 3035 ft | 198 kts | 308° |
| 2026-05-06 20:46 | 24.95037 | 67.36372 | 2877 ft | 185 kts | 285° |
| 2026-05-06 20:46 | 24.95172 | 67.34991 | 2748 ft | 182 kts | 265° |
| 2026-05-06 20:46 | 24.94879 | 67.33624 | 2725 ft | 181 kts | 258° |
| 2026-05-06 20:47 | 24.94580 | 67.32259 | 2749 ft | 180 kts | 259° |
| 2026-05-06 20:47 | 24.94284 | 67.30960 | 2833 ft | 174 kts | 258° |
| 2026-05-06 20:47 | 24.93953 | 67.29582 | 2748 ft | 169 kts | 257° |
| 2026-05-06 20:47 | 24.93636 | 67.28326 | 2597 ft | 147 kts | 257° |
| 2026-05-06 20:48 | 24.93354 | 67.27231 | 2340 ft | 134 kts | 258° |
| 2026-05-06 20:48 | 24.93094 | 67.26208 | 2060 ft | 126 kts | 258° |
| 2026-05-06 20:48 | 24.92849 | 67.25243 | 1723 ft | 121 kts | 258° |
| 2026-05-06 20:48 | 24.92592 | 67.24268 | 1370 ft | 124 kts | 257° |
| 2026-05-06 20:49 | 24.92343 | 67.23261 | 1091 ft | 125 kts | 257° |
| 2026-05-06 20:49 | 24.92096 | 67.22259 | 886 ft | 124 kts | 256° |
| 2026-05-06 20:49 | 24.91831 | 67.21265 | 698 ft | 126 kts | 255° |
| 2026-05-06 20:49 | 24.91576 | 67.20261 | 529 ft | 128 kts | 257° |
| 2026-05-06 20:50 | 24.91326 | 67.19247 | 386 ft | 129 kts | 254° |
| 2026-05-06 20:50 | 24.91064 | 67.18208 | 248 ft | 131 kts | 255° |
| 2026-05-06 20:50 | 24.90786 | 67.17136 | 100 ft | 132 kts | 255° |
| 2026-05-06 20:50 | 24.90549 | 67.16192 | 83 ft | 94 kts | 253° |
| 2026-05-06 20:51 | 24.90402 | 67.15617 | 81 ft | 55 kts | 255° |
| 2026-05-06 20:51 | 24.90304 | 67.15221 | 79 ft | 44 kts | 254° |
| 2026-05-06 20:51 | 24.90174 | 67.14951 | 77 ft | 28 kts | 227° |
| 2026-05-06 20:51 | 24.90061 | 67.14872 | 77 ft | 14 kts | 167° |
| 2026-05-06 20:52 | 24.90039 | 67.14964 | 77 ft | 12 kts | 74° |
| 2026-05-06 20:52 | 24.90068 | 67.15064 | 77 ft | 13 kts | 73° |
| 2026-05-06 20:52 | 24.90093 | 67.15171 | 77 ft | 14 kts | 76° |
| 2026-05-06 20:52 | 24.90121 | 67.15287 | 77 ft | 15 kts | 74° |
| 2026-05-06 20:53 | 24.90152 | 67.15408 | 77 ft | 16 kts | 74° |
| 2026-05-06 20:53 | 24.90187 | 67.15538 | 78 ft | 16 kts | 76° |
| 2026-05-06 20:53 | 24.90217 | 67.15663 | 80 ft | 15 kts | 75° |
| 2026-05-06 20:53 | 24.90247 | 67.15787 | 80 ft | 16 kts | 75° |
| 2026-05-06 20:54 | 24.90279 | 67.15911 | 82 ft | 15 kts | 75° |
| 2026-05-06 20:54 | 24.90240 | 67.15993 | 83 ft | 6 kts | 164° |
| 2026-05-06 20:54 | 24.90192 | 67.16006 | 83 ft | 7 kts | 165° |
| 2026-05-06 20:54 | 24.90177 | 67.16010 | 83 ft | 0 kts | 165° |
| 2026-05-06 20:55 | 24.90176 | 67.16010 | 83 ft | 0 kts | 165° |